Time;durP1;ratioP1;P1;durP2;ratioP2;P2;SDS_P1;SDS_P2;PMS_P1;PMS_P2;Temp;Humidity;BMP_temperature;BMP_pressure;BME280_temperature;BME280_humidity;BME280_pressure;Samples;Min_cycle;Max_cycle;Signal;HPM_P1;HPM_P2
2021/06/16 00:01:37;;;;;;;6.05;4.53;;;20.30;86.30;;;;;;5018241;28;20113;-38
2021/06/16 00:04:04;;;;;;;9.45;4.30;;;20.30;86.40;;;;;;5033803;28;20030;-38
2021/06/16 00:06:30;;;;;;;9.20;5.10;;;20.30;86.30;;;;;;5018570;28;20398;-38
2021/06/16 00:08:56;;;;;;;5.88;3.92;;;20.30;86.30;;;;;;5018480;28;20265;-39
2021/06/16 00:11:22;;;;;;;6.72;5.10;;;20.30;85.90;;;;;;5018246;28;20041;-38
2021/06/16 00:13:48;;;;;;;6.53;4.47;;;20.30;86.30;;;;;;5018449;28;20033;-38
2021/06/16 00:16:14;;;;;;;6.65;4.70;;;20.30;86.20;;;;;;5018696;28;20310;-38
2021/06/16 00:18:39;;;;;;;6.30;4.07;;;20.30;86.10;;;;;;5017611;28;20042;-38
2021/06/16 00:21:05;;;;;;;5.07;3.85;;;20.30;86.20;;;;;;5018318;28;20038;-38
2021/06/16 00:23:30;;;;;;;5.15;3.40;;;20.30;86.10;;;;;;5018128;28;20038;-38
2021/06/16 00:25:56;;;;;;;3.33;2.35;;;20.30;85.70;;;;;;5018158;28;20036;-38
2021/06/16 00:28:22;;;;;;;3.95;2.78;;;20.30;86.00;;;;;;5017689;28;20406;-38
2021/06/16 00:30:47;;;;;;;3.40;2.55;;;20.30;85.70;;;;;;5018073;28;20041;-38
2021/06/16 00:33:13;;;;;;;3.28;2.80;;;20.30;85.90;;;;;;5017331;28;20030;-38
2021/06/16 00:35:39;;;;;;;4.93;2.65;;;20.30;86.10;;;;;;5018243;28;20033;-38
2021/06/16 00:38:05;;;;;;;9.02;3.42;;;20.30;86.10;;;;;;5017487;28;20057;-38
2021/06/16 00:40:30;;;;;;;9.80;3.10;;;20.30;86.70;;;;;;5018028;28;20040;-38
2021/06/16 00:42:57;;;;;;;3.45;2.60;;;20.30;86.40;;;;;;5017412;28;20022;-38
2021/06/16 00:45:24;;;;;;;4.70;3.20;;;20.30;86.00;;;;;;5017397;28;20048;-38
2021/06/16 00:47:55;;;;;;;4.30;3.50;;;20.30;86.20;;;;;;5017541;28;20069;-38
2021/06/16 00:50:33;;;;;;;5.55;3.25;;;20.20;86.00;;;;;;5017511;28;20034;-38
2021/06/16 00:52:58;;;;;;;5.68;3.63;;;20.20;86.10;;;;;;5017408;28;20030;-38
2021/06/16 00:55:24;;;;;;;6.65;3.20;;;20.20;85.80;;;;;;5017713;28;20284;-38
2021/06/16 00:57:51;;;;;;;5.90;3.75;;;20.20;85.90;;;;;;5017433;28;20026;-38
2021/06/16 01:00:23;;;;;;;10.05;3.95;;;20.20;86.30;;;;;;5017759;28;20022;-38
2021/06/16 01:03:01;;;;;;;6.93;4.40;;;20.20;86.50;;;;;;5017402;28;20323;-39
2021/06/16 01:05:34;;;;;;;4.72;3.38;;;20.20;86.60;;;;;;5017722;28;20041;-37
2021/06/16 01:08:03;;;;;;;8.63;3.33;;;20.20;85.90;;;;;;5017209;28;20348;-38
2021/06/16 01:10:34;;;;;;;4.45;3.33;;;20.10;86.10;;;;;;5017200;28;20422;-38
2021/06/16 01:13:02;;;;;;;3.90;3.05;;;20.10;85.80;;;;;;5016839;28;20080;-38
2021/06/16 01:15:37;;;;;;;9.20;4.57;;;20.00;85.70;;;;;;5017146;28;20041;-38
2021/06/16 01:18:05;;;;;;;6.20;3.70;;;20.00;86.30;;;;;;5016717;28;20048;-38
2021/06/16 01:20:40;;;;;;;5.03;4.00;;;19.90;86.10;;;;;;5017181;28;20026;-38
2021/06/16 01:23:26;;;;;;;6.93;3.80;;;19.90;86.20;;;;;;5016539;28;20030;-38
2021/06/16 01:26:01;;;;;;;7.05;4.00;;;19.90;86.00;;;;;;5017179;28;20077;-38
2021/06/16 01:28:34;;;;;;;4.90;3.72;;;19.80;86.10;;;;;;5016630;28;20037;-37
2021/06/16 01:31:01;;;;;;;6.03;4.22;;;19.70;86.50;;;;;;5016896;28;20033;-37
2021/06/16 01:33:28;;;;;;;5.78;3.97;;;19.70;86.90;;;;;;5016551;28;20045;-38
2021/06/16 01:35:55;;;;;;;7.70;4.25;;;19.60;86.70;;;;;;5016879;28;20034;-38
2021/06/16 01:38:25;;;;;;;5.10;3.70;;;19.60;87.00;;;;;;5016612;28;20441;-38
2021/06/16 01:40:54;;;;;;;5.20;4.00;;;19.60;86.80;;;;;;5016772;28;20104;-38
2021/06/16 01:43:21;;;;;;;5.50;4.40;;;19.50;87.40;;;;;;5016290;28;20033;-38
2021/06/16 01:45:49;;;;;;;6.50;4.25;;;19.50;87.70;;;;;;5016772;28;20029;-38
2021/06/16 01:48:17;;;;;;;6.78;4.13;;;19.50;88.10;;;;;;5016536;28;20326;-38
2021/06/16 01:50:44;;;;;;;5.30;3.85;;;19.50;88.30;;;;;;5016632;28;20333;-38
2021/06/16 01:53:11;;;;;;;4.93;3.90;;;19.50;88.30;;;;;;5016283;28;20034;-38
2021/06/16 01:55:38;;;;;;;6.65;4.30;;;19.50;89.00;;;;;;5016646;28;20271;-38
2021/06/16 01:58:06;;;;;;;7.32;4.50;;;19.50;88.50;;;;;;5015845;28;20337;-38
2021/06/16 02:00:34;;;;;;;9.20;5.15;;;19.50;88.50;;;;;;5016453;28;20022;-38
2021/06/16 02:03:00;;;;;;;6.05;4.68;;;19.40;88.60;;;;;;5015945;28;20365;-38
2021/06/16 02:05:27;;;;;;;8.52;5.68;;;19.40;88.60;;;;;;5016461;28;20033;-38
2021/06/16 02:08:00;;;;;;;6.50;4.57;;;19.40;89.00;;;;;;5015860;28;20457;-38
2021/06/16 02:10:33;;;;;;;7.45;4.75;;;19.40;89.20;;;;;;5016430;28;20323;-38
2021/06/16 02:13:02;;;;;;;7.22;5.10;;;19.40;88.70;;;;;;5015586;28;20030;-38
2021/06/16 02:15:36;;;;;;;6.32;4.80;;;19.30;88.90;;;;;;5016194;28;20034;-38
2021/06/16 02:18:04;;;;;;;8.65;5.30;;;19.30;89.00;;;;;;5015627;28;20105;-37
2021/06/16 02:20:30;;;;;;;5.90;5.30;;;19.30;89.00;;;;;;5016090;28;20458;-38
2021/06/16 02:22:56;;;;;;;5.68;4.43;;;19.30;89.50;;;;;;5030870;28;20114;-38
2021/06/16 02:25:22;;;;;;;6.72;4.72;;;19.30;89.30;;;;;;5015954;28;20096;-38
2021/06/16 02:27:48;;;;;;;5.38;4.88;;;19.30;89.60;;;;;;5015544;28;20045;-38
2021/06/16 02:30:15;;;;;;;8.30;5.10;;;19.30;89.60;;;;;;5015749;28;20064;-38
2021/06/16 02:32:41;;;;;;;5.00;4.10;;;19.30;89.70;;;;;;5015169;28;20038;-38
2021/06/16 02:35:08;;;;;;;7.05;4.75;;;19.30;89.50;;;;;;5015621;28;20028;-37
2021/06/16 02:37:48;;;;;;;4.53;4.07;;;19.30;89.50;;;;;;5015218;28;20088;-38
2021/06/16 02:40:16;;;;;;;8.52;5.38;;;19.30;89.70;;;;;;5015681;28;20022;-37
2021/06/16 02:42:48;;;;;;;7.45;4.88;;;19.30;90.10;;;;;;5015205;28;20034;-37
2021/06/16 02:45:15;;;;;;;6.57;4.65;;;19.40;90.00;;;;;;5015866;28;20103;-38
2021/06/16 02:47:46;;;;;;;5.93;5.00;;;19.40;90.00;;;;;;5015104;28;20062;-37
2021/06/16 02:50:16;;;;;;;6.07;4.78;;;19.50;89.90;;;;;;5015860;28;20084;-37
2021/06/16 02:52:43;;;;;;;7.40;4.82;;;19.50;89.70;;;;;;5015099;28;20444;-38
2021/06/16 02:55:10;;;;;;;5.55;4.32;;;19.40;90.00;;;;;;5015687;28;20117;-38
2021/06/16 02:57:40;;;;;;;6.43;4.25;;;19.50;89.70;;;;;;5015132;28;20430;-37
2021/06/16 03:00:09;;;;;;;6.10;4.95;;;19.50;89.50;;;;;;5015506;28;20125;-38
2021/06/16 03:02:36;;;;;;;5.40;4.43;;;19.50;89.50;;;;;;5014956;28;20108;-38
2021/06/16 03:05:05;;;;;;;7.80;4.40;;;19.50;89.70;;;;;;5015670;28;20398;-38
2021/06/16 03:07:33;;;;;;;5.10;4.40;;;19.60;89.50;;;;;;5016308;28;20333;-38
2021/06/16 03:09:59;;;;;;;7.00;4.00;;;19.60;89.20;;;;;;5019186;28;20418;-38
2021/06/16 03:12:26;;;;;;;5.03;4.20;;;19.60;89.30;;;;;;5019243;28;20038;-38
2021/06/16 03:14:52;;;;;;;6.47;3.80;;;19.70;89.40;;;;;;5019453;28;20365;-37
2021/06/16 03:17:19;;;;;;;4.38;3.97;;;19.70;89.20;;;;;;5019346;28;20034;-38
2021/06/16 03:19:47;;;;;;;5.72;3.50;;;19.70;89.40;;;;;;5019561;28;20042;-39
2021/06/16 03:22:13;;;;;;;3.85;3.08;;;19.80;88.60;;;;;;5019409;28;20034;-38
2021/06/16 03:24:41;;;;;;;4.28;3.20;;;19.80;88.40;;;;;;5019057;28;20084;-38
2021/06/16 03:27:07;;;;;;;4.78;3.00;;;19.80;88.20;;;;;;5019329;28;20100;-38
2021/06/16 03:29:34;;;;;;;3.33;3.03;;;19.90;88.50;;;;;;5019243;28;20030;-38
2021/06/16 03:32:06;;;;;;;3.60;2.97;;;19.90;88.70;;;;;;5018995;28;20044;-38
2021/06/16 03:34:31;;;;;;;4.03;2.92;;;19.90;88.40;;;;;;5018948;28;20030;-38
2021/06/16 03:37:01;;;;;;;5.10;2.65;;;20.00;87.90;;;;;;5018909;28;20108;-38
2021/06/16 03:39:28;;;;;;;5.28;3.15;;;20.00;88.20;;;;;;5018831;28;20033;-39
2021/06/16 03:41:54;;;;;;;3.45;2.70;;;20.00;87.80;;;;;;5019092;28;20030;-38
2021/06/16 03:44:21;;;;;;;3.30;3.00;;;20.10;88.00;;;;;;5018811;28;20080;-38
2021/06/16 03:46:48;;;;;;;3.80;3.35;;;20.10;87.80;;;;;;5018484;28;20083;-38
2021/06/16 03:49:15;;;;;;;2.97;2.60;;;20.20;87.90;;;;;;5018570;28;20026;-38
2021/06/16 03:51:42;;;;;;;3.20;2.65;;;20.20;87.40;;;;;;5033757;28;20326;-38
2021/06/16 03:54:12;;;;;;;3.17;2.70;;;20.20;86.70;;;;;;5018544;28;20112;-38
2021/06/16 03:56:45;;;;;;;3.08;2.78;;;20.20;86.70;;;;;;5018942;28;20040;-38
2021/06/16 03:59:12;;;;;;;4.30;2.80;;;20.20;86.70;;;;;;5018577;28;20030;-42
2021/06/16 04:01:39;;;;;;;5.05;3.10;;;20.20;86.60;;;;;;5018482;28;20062;-38
2021/06/16 04:04:06;;;;;;;5.38;3.33;;;20.20;86.60;;;;;;5018437;28;20426;-38
2021/06/16 04:06:37;;;;;;;4.47;3.28;;;20.30;86.40;;;;;;5018453;28;20318;-38
2021/06/16 04:09:04;;;;;;;3.90;3.40;;;20.30;86.70;;;;;;5018340;28;20026;-38
2021/06/16 04:11:33;;;;;;;3.80;3.15;;;20.30;86.90;;;;;;5018330;28;20427;-38
2021/06/16 04:13:59;;;;;;;4.75;3.67;;;20.30;87.10;;;;;;5017862;28;20030;-38
2021/06/16 04:16:26;;;;;;;4.55;3.60;;;20.30;87.10;;;;;;5018329;28;20327;-38
2021/06/16 04:18:53;;;;;;;5.35;3.90;;;20.40;87.00;;;;;;5017301;28;20045;-38
2021/06/16 04:21:19;;;;;;;5.43;3.90;;;20.40;86.70;;;;;;5017642;28;20304;-38
2021/06/16 04:23:46;;;;;;;3.90;3.50;;;20.40;86.60;;;;;;5017706;28;20419;-38
2021/06/16 04:26:12;;;;;;;4.30;3.90;;;20.40;86.70;;;;;;5018238;28;20402;-37
2021/06/16 04:28:38;;;;;;;4.18;3.75;;;20.50;87.20;;;;;;5017137;28;20041;-38
2021/06/16 04:31:04;;;;;;;4.97;4.35;;;20.50;87.50;;;;;;5017632;28;20040;-38
2021/06/16 04:33:29;;;;;;;5.43;3.72;;;20.50;87.60;;;;;;5017041;28;20073;-38
2021/06/16 04:35:55;;;;;;;4.07;3.67;;;20.60;87.50;;;;;;5018121;28;20034;-38
2021/06/16 04:38:21;;;;;;;4.25;3.80;;;20.50;87.10;;;;;;5017685;28;20373;-38
2021/06/16 04:40:47;;;;;;;3.80;3.25;;;20.50;86.90;;;;;;5017791;28;20088;-38
2021/06/16 04:43:12;;;;;;;3.15;2.85;;;20.60;87.10;;;;;;5016922;28;20029;-39
2021/06/16 04:45:38;;;;;;;4.10;3.15;;;20.60;87.10;;;;;;5017837;28;20080;-38
2021/06/16 04:48:05;;;;;;;4.82;3.55;;;20.60;86.40;;;;;;5017036;28;20121;-38
2021/06/16 04:50:30;;;;;;;4.20;3.15;;;20.60;87.00;;;;;;5017349;28;20411;-38
2021/06/16 04:52:56;;;;;;;6.22;3.55;;;20.60;86.90;;;;;;5017041;28;20033;-39
2021/06/16 04:55:22;;;;;;;4.97;4.10;;;20.70;87.20;;;;;;5017269;28;20042;-39
2021/06/16 04:57:47;;;;;;;5.53;3.83;;;20.70;87.20;;;;;;5017020;28;20383;-38
2021/06/16 05:00:14;;;;;;;3.92;3.45;;;20.80;87.50;;;;;;5017127;28;20018;-38
2021/06/16 05:02:40;;;;;;;5.18;3.63;;;20.80;87.50;;;;;;5017354;28;20091;-38
2021/06/16 05:05:07;;;;;;;4.65;3.38;;;20.90;87.40;;;;;;5017085;28;20034;-38
2021/06/16 05:07:32;;;;;;;4.45;3.33;;;21.00;87.20;;;;;;5016776;28;20026;-38
2021/06/16 05:09:58;;;;;;;6.07;3.78;;;21.00;87.20;;;;;;5017215;28;20421;-38
2021/06/16 05:12:24;;;;;;;5.05;3.72;;;21.10;87.50;;;;;;5017130;28;20029;-38
2021/06/16 05:14:50;;;;;;;4.00;3.35;;;21.10;87.30;;;;;;5017455;28;20034;-38
2021/06/16 05:17:17;;;;;;;4.22;3.33;;;21.20;87.10;;;;;;5017031;28;20449;-38
2021/06/16 05:19:44;;;;;;;4.13;3.22;;;21.30;86.00;;;;;;5017003;28;20050;-38
2021/06/16 05:22:13;;;;;;;4.82;3.80;;;21.30;84.50;;;;;;5017088;28;20325;-38
2021/06/16 05:24:40;;;;;;;4.35;3.63;;;21.30;84.60;;;;;;5016838;28;20034;-38
2021/06/16 05:27:06;;;;;;;3.92;3.50;;;21.40;85.20;;;;;;5016824;28;20108;-38
2021/06/16 05:29:32;;;;;;;6.20;3.80;;;21.40;85.10;;;;;;5016642;28;20026;-38
2021/06/16 05:31:58;;;;;;;4.03;3.20;;;21.40;85.20;;;;;;5015521;28;20034;-38
2021/06/16 05:34:24;;;;;;;4.70;4.20;;;21.50;85.30;;;;;;5016558;28;20112;-38
2021/06/16 05:36:50;;;;;;;4.90;3.67;;;21.50;85.70;;;;;;5016575;28;20108;-38
2021/06/16 05:39:16;;;;;;;5.60;4.55;;;21.50;85.70;;;;;;5016115;28;20029;-38
2021/06/16 05:41:42;;;;;;;12.45;8.18;;;21.50;85.40;;;;;;5016351;28;20034;-38
2021/06/16 05:44:08;;;;;;;8.02;5.10;;;21.60;85.60;;;;;;5016348;28;20026;-38
2021/06/16 05:46:33;;;;;;;4.20;3.65;;;21.70;85.40;;;;;;5016264;28;20053;-38
2021/06/16 05:48:59;;;;;;;10.77;5.97;;;21.80;85.40;;;;;;5016246;28;20057;-38
2021/06/16 05:51:25;;;;;;;4.90;4.32;;;21.90;84.20;;;;;;5015921;28;20038;-38
2021/06/16 05:53:50;;;;;;;5.40;4.40;;;21.90;83.70;;;;;;5015907;28;20192;-38
2021/06/16 05:56:16;;;;;;;6.15;4.25;;;21.90;84.20;;;;;;5016330;28;20069;-38
2021/06/16 05:58:42;;;;;;;4.88;3.63;;;22.00;83.20;;;;;;5016089;28;20056;-38
2021/06/16 06:01:07;;;;;;;3.83;3.42;;;22.00;83.30;;;;;;5015914;28;20056;-38
2021/06/16 06:03:34;;;;;;;5.05;4.43;;;22.00;83.10;;;;;;5015787;28;20416;-38
2021/06/16 06:05:59;;;;;;;5.47;4.28;;;22.00;83.30;;;;;;5015962;28;20124;-38
2021/06/16 06:08:25;;;;;;;8.20;3.90;;;22.00;82.90;;;;;;5015652;28;20053;-38
2021/06/16 06:10:51;;;;;;;5.32;3.85;;;22.10;82.30;;;;;;5015850;28;20049;-38
2021/06/16 06:13:17;;;;;;;4.97;4.07;;;22.00;82.60;;;;;;5015513;28;20120;-38
2021/06/16 06:15:42;;;;;;;5.03;3.83;;;22.10;82.90;;;;;;5015900;28;20034;-39
2021/06/16 06:18:08;;;;;;;5.75;4.18;;;22.10;82.60;;;;;;5015766;28;20081;-39
2021/06/16 06:20:34;;;;;;;4.70;3.85;;;22.20;82.80;;;;;;5015959;28;20485;-38
2021/06/16 06:22:59;;;;;;;5.07;4.25;;;22.20;83.20;;;;;;5015291;28;20040;-38
2021/06/16 06:25:25;;;;;;;5.80;4.53;;;22.20;82.50;;;;;;5015840;28;20088;-38
2021/06/16 06:27:51;;;;;;;5.63;4.10;;;22.30;81.70;;;;;;5011677;28;20329;-38
2021/06/16 06:30:17;;;;;;;6.32;5.25;;;22.30;81.30;;;;;;5014531;28;20041;-38
2021/06/16 06:32:42;;;;;;;6.90;5.40;;;22.30;81.40;;;;;;5014878;28;20057;-39
2021/06/16 06:35:09;;;;;;;6.05;4.40;;;22.40;81.50;;;;;;5015190;28;20022;-38
2021/06/16 06:37:34;;;;;;;9.68;5.75;;;22.50;81.20;;;;;;5014898;28;20048;-38
2021/06/16 06:40:01;;;;;;;6.05;5.07;;;22.50;80.40;;;;;;5015813;28;20034;-38
2021/06/16 06:42:27;;;;;;;6.97;4.82;;;22.60;80.10;;;;;;5014476;28;20038;-38
2021/06/16 06:44:53;;;;;;;8.18;5.25;;;22.60;79.90;;;;;;5015374;28;20041;-38
2021/06/16 06:47:19;;;;;;;8.00;4.93;;;22.70;79.50;;;;;;5015503;28;20034;-38
2021/06/16 06:49:45;;;;;;;8.05;6.38;;;22.70;79.60;;;;;;5014975;28;20065;-38
2021/06/16 06:52:10;;;;;;;7.97;6.18;;;22.80;80.30;;;;;;5015170;28;20073;-38
2021/06/16 06:54:37;;;;;;;12.93;8.75;;;22.90;80.00;;;;;;5015218;28;20026;-38
2021/06/16 06:57:03;;;;;;;10.00;7.85;;;23.00;79.20;;;;;;5015405;28;20034;-39
2021/06/16 06:59:29;;;;;;;8.77;6.40;;;23.10;79.10;;;;;;5015306;28;20053;-38
2021/06/16 07:01:54;;;;;;;5.68;5.07;;;23.10;78.90;;;;;;5015418;28;20120;-37
2021/06/16 07:04:22;;;;;;;9.07;6.28;;;23.20;78.10;;;;;;5014594;28;20025;-38
2021/06/16 07:06:48;;;;;;;11.23;6.15;;;23.20;77.00;;;;;;5015318;28;20345;-38
2021/06/16 07:09:14;;;;;;;10.68;6.70;;;23.20;77.40;;;;;;5015148;28;20032;-37
2021/06/16 07:11:39;;;;;;;6.35;5.60;;;23.20;77.20;;;;;;5015005;28;20387;-38
2021/06/16 07:14:05;;;;;;;7.43;5.90;;;23.30;77.10;;;;;;5015358;28;20059;-44
2021/06/16 07:16:31;;;;;;;8.30;5.60;;;23.30;77.20;;;;;;5015168;28;20042;-38
2021/06/16 07:18:56;;;;;;;10.35;6.25;;;23.30;76.70;;;;;;5014387;28;20104;-38
2021/06/16 07:21:22;;;;;;;7.53;6.05;;;23.40;76.20;;;;;;5015371;28;20037;-40
2021/06/16 07:23:48;;;;;;;6.47;5.50;;;23.40;75.70;;;;;;5014897;28;20299;-38
2021/06/16 07:26:14;;;;;;;10.38;5.75;;;23.40;75.80;;;;;;5014950;28;20413;-38
2021/06/16 07:28:40;;;;;;;6.82;5.70;;;23.50;76.20;;;;;;5014825;28;20381;-38
2021/06/16 07:31:06;;;;;;;7.57;5.20;;;23.50;75.80;;;;;;5014952;28;20036;-37
2021/06/16 07:33:33;;;;;;;7.63;5.50;;;23.60;75.90;;;;;;5014367;28;20037;-39
2021/06/16 07:35:59;;;;;;;7.57;6.18;;;23.60;75.30;;;;;;5015322;28;20054;-43
2021/06/16 07:38:25;;;;;;;7.63;5.28;;;23.60;75.10;;;;;;5014473;28;20068;-43
2021/06/16 07:40:51;;;;;;;6.18;5.35;;;23.70;75.40;;;;;;5014821;28;20056;-37
2021/06/16 07:43:18;;;;;;;8.10;5.28;;;23.70;75.50;;;;;;5014302;28;20026;-37
2021/06/16 07:45:43;;;;;;;6.93;6.03;;;23.70;75.40;;;;;;5015161;28;20057;-37
2021/06/16 07:48:09;;;;;;;6.97;5.63;;;23.80;75.40;;;;;;5014187;28;20072;-38
2021/06/16 07:50:38;;;;;;;7.53;5.65;;;23.90;75.60;;;;;;5014136;28;20030;-37
2021/06/16 07:53:07;;;;;;;10.35;6.22;;;23.90;75.10;;;;;;5014507;28;20105;-37
2021/06/16 07:55:33;;;;;;;5.88;5.13;;;24.00;74.60;;;;;;5016958;28;20080;-37
2021/06/16 07:57:59;;;;;;;7.55;5.05;;;24.10;73.90;;;;;;5018124;28;20442;-37
2021/06/16 08:00:25;;;;;;;8.18;5.43;;;24.10;74.00;;;;;;5015914;28;20065;-41
2021/06/16 08:02:50;;;;;;;5.20;4.45;;;24.20;73.60;;;;;;5016946;28;20041;-42
2021/06/16 08:05:16;;;;;;;5.47;4.90;;;24.30;73.30;;;;;;5018061;28;20045;-42
2021/06/16 08:07:43;;;;;;;5.78;4.90;;;24.30;73.10;;;;;;5018002;28;20034;-37
2021/06/16 08:10:09;;;;;;;6.55;5.47;;;24.30;72.40;;;;;;5018012;28;20022;-37
2021/06/16 08:12:35;;;;;;;9.05;6.90;;;24.30;71.30;;;;;;5016900;28;20083;-39
2021/06/16 08:15:01;;;;;;;8.25;6.38;;;24.30;71.20;;;;;;5018090;28;20120;-37
2021/06/16 08:17:27;;;;;;;5.28;4.63;;;24.30;71.50;;;;;;5017326;28;20038;-37
2021/06/16 08:19:52;;;;;;;7.18;5.05;;;24.30;71.60;;;;;;5017727;28;20057;-37
2021/06/16 08:22:18;;;;;;;8.50;5.68;;;24.30;71.40;;;;;;5017522;28;20044;-38
2021/06/16 08:24:44;;;;;;;5.53;4.97;;;24.30;71.30;;;;;;5018078;28;20034;-37
2021/06/16 08:27:10;;;;;;;6.22;5.45;;;24.30;71.40;;;;;;5017617;28;20330;-45
2021/06/16 08:29:37;;;;;;;8.13;4.93;;;24.30;71.50;;;;;;5017862;28;20036;-42
2021/06/16 08:32:03;;;;;;;8.68;5.05;;;24.30;71.70;;;;;;5017391;28;20420;-38
2021/06/16 08:34:29;;;;;;;7.13;5.38;;;24.30;72.00;;;;;;5017695;28;20038;-37
2021/06/16 08:36:55;;;;;;;9.15;5.20;;;24.30;71.50;;;;;;5017299;28;20080;-42
2021/06/16 08:39:21;;;;;;;5.00;4.50;;;24.40;71.50;;;;;;5017595;28;20030;-42
2021/06/16 08:41:48;;;;;;;5.18;4.68;;;24.40;71.60;;;;;;5016984;28;20390;-37
2021/06/16 08:44:14;;;;;;;6.75;4.95;;;24.40;71.60;;;;;;5017717;28;20330;-37
2021/06/16 08:46:41;;;;;;;5.75;4.90;;;24.50;71.60;;;;;;5017225;28;20330;-37
2021/06/16 08:49:07;;;;;;;5.65;5.05;;;24.50;71.40;;;;;;5016389;28;20029;-43
2021/06/16 08:51:34;;;;;;;4.65;4.05;;;24.60;71.10;;;;;;5016596;28;20120;-44
2021/06/16 08:54:00;;;;;;;4.50;4.00;;;24.60;70.90;;;;;;5032545;28;20057;-38
2021/06/16 08:56:26;;;;;;;4.93;4.20;;;24.60;71.00;;;;;;5016371;28;20030;-38
2021/06/16 08:58:52;;;;;;;6.28;4.50;;;24.70;71.00;;;;;;5017281;28;20101;-39
2021/06/16 09:01:18;;;;;;;5.03;4.32;;;24.70;70.70;;;;;;5017249;28;20447;-37
2021/06/16 09:03:43;;;;;;;11.75;5.10;;;24.80;70.50;;;;;;5017218;28;20026;-43
2021/06/16 09:06:14;;;;;;;5.00;4.50;;;24.80;70.50;;;;;;5016672;28;20091;-37
2021/06/16 09:08:52;;;;;;;7.15;4.68;;;24.80;70.40;;;;;;5016801;28;20026;-45
2021/06/16 09:11:20;;;;;;;6.03;4.70;;;25.00;70.00;;;;;;5016977;28;20038;-41
2021/06/16 09:13:45;;;;;;;6.70;4.90;;;25.00;70.10;;;;;;5016690;28;20038;-42
2021/06/16 09:16:29;;;;;;;5.32;4.75;;;25.00;69.70;;;;;;5016930;28;20049;-37
2021/06/16 09:18:55;;;;;;;7.20;5.07;;;25.10;70.00;;;;;;5016595;28;20482;-42
2021/06/16 09:21:36;;;;;;;8.65;4.68;;;25.20;70.00;;;;;;5016429;28;20034;-43
2021/06/16 09:24:03;;;;;;;5.68;4.45;;;25.30;69.20;;;;;;5017120;28;20025;-38
2021/06/16 09:26:31;;;;;;;4.22;3.83;;;25.40;69.30;;;;;;5016375;28;20045;-38
2021/06/16 09:28:58;;;;;;;5.53;4.32;;;25.40;69.30;;;;;;5016928;28;20034;-44
2021/06/16 09:31:24;;;;;;;6.38;3.70;;;25.50;69.10;;;;;;5016359;28;20149;-38
2021/06/16 09:33:50;;;;;;;5.18;3.60;;;25.60;68.70;;;;;;5016180;28;20521;-37
2021/06/16 09:36:18;;;;;;;4.35;3.95;;;25.70;68.40;;;;;;5016635;28;20357;-42
2021/06/16 09:38:46;;;;;;;4.03;3.63;;;25.80;67.90;;;;;;5016183;28;20105;-42
2021/06/16 09:41:14;;;;;;;8.10;4.75;;;25.90;66.80;;;;;;5016203;28;20030;-38
2021/06/16 09:43:41;;;;;;;6.13;3.75;;;25.90;67.10;;;;;;5016594;28;20030;-42
2021/06/16 09:46:10;;;;;;;4.88;3.85;;;26.00;67.10;;;;;;5016464;28;20076;-38
2021/06/16 09:48:40;;;;;;;6.53;3.50;;;26.20;67.10;;;;;;5016161;28;20091;-38
2021/06/16 09:51:15;;;;;;;6.10;4.47;;;26.30;66.40;;;;;;5016307;28;20267;-44
2021/06/16 09:53:59;;;;;;;5.78;3.53;;;26.40;66.20;;;;;;5015703;28;20068;-44
2021/06/16 09:56:27;;;;;;;3.97;3.35;;;26.50;65.90;;;;;;5015764;28;20026;-41
2021/06/16 09:58:54;;;;;;;8.30;4.18;;;26.50;65.30;;;;;;5015998;28;20414;-38
2021/06/16 10:01:40;;;;;;;6.68;4.22;;;26.60;65.60;;;;;;5015671;28;20033;-38
2021/06/16 10:04:05;;;;;;;3.30;3.00;;;26.70;64.50;;;;;;5016160;28;20037;-43
2021/06/16 10:06:31;;;;;;;9.13;3.50;;;26.70;63.10;;;;;;5015385;28;20048;-43
2021/06/16 10:09:09;;;;;;;4.57;3.45;;;26.80;63.30;;;;;;5015934;28;20092;-43
2021/06/16 10:11:35;;;;;;;5.63;4.47;;;26.80;62.90;;;;;;5016919;28;20037;-38
2021/06/16 10:14:02;;;;;;;5.97;4.80;;;26.80;63.30;;;;;;5015875;28;20150;-38
2021/06/16 10:16:28;;;;;;;7.25;4.60;;;26.90;62.80;;;;;;5015602;28;20022;-38
2021/06/16 10:18:54;;;;;;;4.32;3.35;;;26.90;62.10;;;;;;5014276;28;20084;-43
2021/06/16 10:21:22;;;;;;;7.88;3.42;;;27.00;62.30;;;;;;5015649;28;20319;-42
2021/06/16 10:23:48;;;;;;;3.40;2.70;;;27.10;61.70;;;;;;5016046;28;20363;-38
2021/06/16 10:26:30;;;;;;;7.25;2.85;;;27.20;61.10;;;;;;5015811;28;20085;-43
2021/06/16 10:28:59;;;;;;;5.18;4.07;;;27.30;61.70;;;;;;5016092;28;20038;-44
2021/06/16 10:31:38;;;;;;;3.90;3.50;;;27.40;61.60;;;;;;5015296;28;20033;-38
2021/06/16 10:34:04;;;;;;;4.93;3.85;;;27.50;61.30;;;;;;5016153;28;20034;-38
2021/06/16 10:36:31;;;;;;;9.85;6.45;;;27.50;61.20;;;;;;5015859;28;20053;-38
2021/06/16 10:38:57;;;;;;;5.13;3.55;;;27.50;61.00;;;;;;5015753;28;20034;-42
2021/06/16 10:41:46;;;;;;;4.28;2.95;;;27.50;61.10;;;;;;5015972;28;20034;-43
2021/06/16 10:44:15;;;;;;;6.88;3.53;;;27.50;61.20;;;;;;5008114;28;20113;-43
2021/06/16 10:46:48;;;;;;;4.05;3.53;;;27.30;61.70;;;;;;5015598;28;20034;-42
2021/06/16 10:49:14;;;;;;;3.50;3.17;;;27.30;62.10;;;;;;5015523;28;20057;-42
2021/06/16 10:51:42;;;;;;;5.05;3.42;;;27.10;61.90;;;;;;5015343;28;20119;-43
2021/06/16 10:54:19;;;;;;;5.05;3.45;;;27.00;61.70;;;;;;5015249;28;20053;-38
2021/06/16 10:56:54;;;;;;;4.85;2.90;;;26.90;60.60;;;;;;5015280;28;20038;-42
2021/06/16 10:59:41;;;;;;;2.63;2.40;;;26.70;59.90;;;;;;5015169;28;20369;-42
2021/06/16 11:02:07;;;;;;;3.65;2.80;;;26.60;59.30;;;;;;5015046;28;20418;-42
2021/06/16 11:04:33;;;;;;;2.20;2.00;;;26.50;60.10;;;;;;5015500;28;20116;-39
2021/06/16 11:06:59;;;;;;;2.50;2.30;;;26.40;60.50;;;;;;5015367;28;20053;-43
2021/06/16 11:09:50;;;;;;;13.40;4.20;;;26.30;61.00;;;;;;5015484;28;20176;-42
2021/06/16 11:12:16;;;;;;;23.23;4.53;;;26.10;63.20;;;;;;5015203;28;20053;-43
2021/06/16 11:14:46;;;;;;;8.73;4.05;;;26.00;65.80;;;;;;5015274;28;20030;-40
2021/06/16 11:17:32;;;;;;;7.03;3.55;;;25.80;67.80;;;;;;5015450;28;20045;-38
2021/06/16 11:20:10;;;;;;;10.77;3.83;;;25.50;67.90;;;;;;5008348;28;20061;-39
2021/06/16 11:22:50;;;;;;;29.55;5.75;;;25.20;67.20;;;;;;5015359;28;20037;-37
2021/06/16 11:25:18;;;;;;;15.50;4.55;;;24.80;68.60;;;;;;5015407;28;20030;-38
2021/06/16 11:27:52;;;;;;;13.00;6.88;;;24.30;69.70;;;;;;5015072;28;20425;-41
2021/06/16 11:30:28;;;;;;;13.43;5.15;;;24.00;71.00;;;;;;5019059;28;20323;-40
2021/06/16 11:33:12;;;;;;;6.93;3.17;;;23.60;71.60;;;;;;5018575;28;20041;-38
2021/06/16 11:35:43;;;;;;;8.70;3.40;;;23.30;71.40;;;;;;5019267;28;20030;-39
2021/06/16 11:38:10;;;;;;;5.07;3.03;;;23.00;72.20;;;;;;5018895;28;20369;-40
2021/06/16 11:40:36;;;;;;;14.05;8.32;;;22.60;73.40;;;;;;5018801;28;20461;-39
2021/06/16 11:43:02;;;;;;;9.00;5.72;;;22.40;74.90;;;;;;5033871;28;20034;-38
2021/06/16 11:45:32;;;;;;;15.27;8.88;;;22.20;76.10;;;;;;5018950;28;20029;-40
2021/06/16 11:48:00;;;;;;;14.88;8.45;;;22.00;77.60;;;;;;5014438;28;20053;-39
2021/06/16 11:50:34;;;;;;;23.60;12.20;;;21.90;78.30;;;;;;5018408;28;20038;-40
2021/06/16 11:53:06;;;;;;;8.43;4.15;;;21.90;79.10;;;;;;5017903;28;20125;-41
2021/06/16 11:55:43;;;;;;;6.80;3.25;;;21.80;79.70;;;;;;5018757;28;20280;-39
2021/06/16 11:58:23;;;;;;;18.30;9.82;;;21.80;79.80;;;;;;5017993;28;20026;-39
2021/06/16 12:00:50;;;;;;;;;;;21.80;80.10;;;;;;5019008;28;20030;-40
2021/06/16 12:03:17;;;;;;;10.80;6.00;;;21.70;79.60;;;;;;5017858;28;20203;-41
2021/06/16 12:05:43;;;;;;;11.73;7.30;;;21.70;81.50;;;;;;5018479;28;20030;-39
2021/06/16 12:08:09;;;;;;;11.80;7.13;;;21.80;81.80;;;;;;5017755;28;20041;-39
2021/06/16 12:10:35;;;;;;;5.95;4.38;;;21.80;82.40;;;;;;5018045;28;20410;-41
2021/06/16 12:13:06;;;;;;;13.95;7.63;;;21.90;83.00;;;;;;5017290;28;20041;-39
2021/06/16 12:15:35;;;;;;;12.55;6.57;;;21.90;82.80;;;;;;5018517;28;20299;-39
2021/06/16 12:18:15;;;;;;;5.95;4.07;;;22.00;82.30;;;;;;5017652;28;20053;-39
2021/06/16 12:20:48;;;;;;;5.65;4.32;;;22.00;82.10;;;;;;5018404;28;20061;-39
2021/06/16 12:23:42;;;;;;;8.02;5.82;;;22.00;82.00;;;;;;5017139;28;20422;-43
2021/06/16 12:26:14;;;;;;;9.18;6.30;;;22.00;81.60;;;;;;5017606;28;20415;-39
2021/06/16 12:28:42;;;;;;;11.38;6.60;;;22.00;82.00;;;;;;5017593;28;20030;-41
2021/06/16 12:31:13;;;;;;;8.88;6.43;;;22.10;82.00;;;;;;5017736;28;20045;-39
2021/06/16 12:33:51;;;;;;;9.02;4.20;;;22.10;82.50;;;;;;5017419;28;20111;-39
2021/06/16 12:36:21;;;;;;;10.50;4.72;;;22.20;82.10;;;;;;5017522;28;20108;-39
2021/06/16 12:38:48;;;;;;;;;;;22.20;83.80;;;;;;5017937;28;20048;-39
2021/06/16 12:41:37;;;;;;;15.13;6.35;;;22.40;83.00;;;;;;5017012;28;19917;-39
2021/06/16 12:44:35;;;;;;;5.70;3.83;;;22.50;83.60;;;;;;5017846;28;20032;-41
2021/06/16 12:47:09;;;;;;;6.90;3.92;;;22.70;83.30;;;;;;5017135;28;20042;-39
2021/06/16 12:49:59;;;;;;;6.63;4.35;;;22.70;82.90;;;;;;5017957;28;20037;-41
2021/06/16 12:52:33;;;;;;;11.38;3.92;;;22.80;82.20;;;;;;5016797;28;20137;-39